Time;durP1;ratioP1;P1;durP2;ratioP2;P2;SDS_P1;SDS_P2;PMS_P1;PMS_P2;Temp;Humidity;BMP_temperature;BMP_pressure;BME280_temperature;BME280_humidity;BME280_pressure;Samples;Min_cycle;Max_cycle;Signal;HPM_P1;HPM_P2
2023/10/12 04:04:53;;;;;;;0.30;0.30;;;17.00;99.90;;;;;;6242339;22;20505;-62
2023/10/12 04:07:19;;;;;;;0.30;0.30;;;17.00;99.90;;;;;;5057425;28;20436;-62
2023/10/12 04:09:52;;;;;;;0.30;0.30;;;17.10;99.90;;;;;;5053918;28;20412;-61
2023/10/12 04:12:19;;;;;;;0.30;0.30;;;17.10;99.90;;;;;;5055198;28;20913;-61
2023/10/12 04:14:51;;;;;;;0.30;0.30;;;17.10;99.90;;;;;;5055345;28;20462;-61
2023/10/12 04:28:23;;;;;;;0.30;0.30;;;17.20;99.90;;;;;;5009743;28;20420;-62
2023/10/12 04:33:24;;;;;;;0.30;0.30;;;17.10;99.90;;;;;;5054755;28;20542;-61
2023/10/12 04:38:38;;;;;;;0.50;0.40;;;17.10;99.90;;;;;;5054547;28;20421;-61
2023/10/12 04:43:52;;;;;;;0.30;0.30;;;17.10;99.90;;;;;;5054061;28;20410;-62
2023/10/12 04:47:04;;;;;;;0.30;0.30;;;17.00;99.90;;;;;;5054425;28;20791;-61
2023/10/12 04:49:53;;;;;;;0.30;0.30;;;17.00;99.90;;;;;;5046140;28;20425;-61
2023/10/12 04:54:28;;;;;;;0.40;0.40;;;17.00;99.90;;;;;;5053879;28;20449;-61
2023/10/12 04:57:13;;;;;;;0.30;0.30;;;17.00;99.90;;;;;;5054227;28;20427;-62
2023/10/12 04:59:43;;;;;;;0.57;0.40;;;17.10;99.90;;;;;;5053997;28;20792;-62
2023/10/12 05:09:49;;;;;;;0.63;0.60;;;17.10;99.90;;;;;;5054404;28;20424;-61
2023/10/12 05:12:15;;;;;;;0.30;0.20;;;17.00;99.90;;;;;;5067666;28;20427;-62
2023/10/12 05:14:40;;;;;;;0.30;0.20;;;17.00;99.90;;;;;;5072918;28;20502;-61
2023/10/12 05:17:08;;;;;;;0.30;0.30;;;16.90;99.90;;;;;;5073274;28;20446;-61
2023/10/12 05:19:35;;;;;;;0.30;0.30;;;16.90;99.90;;;;;;5073184;28;20165;-62
2023/10/12 05:22:01;;;;;;;0.30;0.30;;;16.80;99.90;;;;;;5087348;28;20961;-61
2023/10/12 05:24:26;;;;;;;1.37;1.27;;;16.80;99.90;;;;;;5073129;28;20466;-61
2023/10/12 05:26:58;;;;;;;0.97;0.87;;;16.70;99.90;;;;;;5056226;28;20926;-61
2023/10/12 05:32:05;;;;;;;0.30;0.30;;;16.60;99.90;;;;;;5053507;28;20735;-60
2023/10/12 05:39:46;;;;;;;0.30;0.20;;;16.60;99.90;;;;;;5053517;28;20488;-61
2023/10/12 05:42:14;;;;;;;0.30;0.20;;;16.60;99.90;;;;;;5053084;28;20415;-61
2023/10/12 05:44:42;;;;;;;0.30;0.30;;;16.60;99.90;;;;;;5054441;28;20419;-62
2023/10/12 05:47:11;;;;;;;0.40;0.30;;;16.50;99.90;;;;;;5072928;28;20430;-61
2023/10/12 05:49:38;;;;;;;0.40;0.40;;;16.50;99.90;;;;;;5054328;28;20793;-61
2023/10/12 05:52:08;;;;;;;0.93;0.93;;;16.50;99.90;;;;;;5052774;28;20419;-61
2023/10/12 05:54:34;;;;;;;0.30;0.30;;;16.50;99.90;;;;;;5053115;28;20788;-62
2023/10/12 05:57:34;;;;;;;0.30;0.20;;;16.60;99.90;;;;;;5071617;28;20411;-61
2023/10/12 05:59:58;;;;;;;0.30;0.20;;;16.60;99.90;;;;;;5068796;28;20500;-61
2023/10/12 06:02:25;;;;;;;0.30;0.30;;;16.60;99.90;;;;;;5073025;28;20423;-61
2023/10/12 06:04:50;;;;;;;0.40;0.40;;;16.60;99.90;;;;;;5067740;28;20445;-61
2023/10/12 06:07:16;;;;;;;0.30;0.30;;;16.60;99.90;;;;;;5061532;28;20455;-62
2023/10/12 06:09:41;;;;;;;0.30;0.20;;;16.70;99.90;;;;;;5072423;28;20177;-61
2023/10/12 06:12:09;;;;;;;0.30;0.30;;;16.70;99.90;;;;;;5071130;28;20593;-61
2023/10/12 06:14:36;;;;;;;0.40;0.40;;;16.80;99.90;;;;;;5069774;28;20576;-61
2023/10/12 06:17:03;;;;;;;0.33;0.33;;;16.80;99.90;;;;;;5052340;28;20423;-60
2023/10/12 06:19:34;;;;;;;0.30;0.20;;;16.90;99.90;;;;;;5052816;28;20413;-62
2023/10/12 06:22:32;;;;;;;0.40;0.40;;;17.00;99.90;;;;;;5057829;28;20428;-61
2023/10/12 06:24:59;;;;;;;0.40;0.40;;;17.10;99.90;;;;;;5072596;28;20425;-61
2023/10/12 06:27:25;;;;;;;0.30;0.27;;;17.20;99.90;;;;;;5072546;28;20420;-61
2023/10/12 06:29:52;;;;;;;0.30;0.30;;;17.30;99.90;;;;;;5072749;28;20415;-61
2023/10/12 06:32:19;;;;;;;0.40;0.40;;;17.40;99.90;;;;;;5064006;28;20596;-61
2023/10/12 06:35:02;;;;;;;0.30;0.30;;;17.50;99.90;;;;;;5067107;28;20937;-61
2023/10/12 06:43:57;;;;;;;1.17;0.50;;;17.90;99.90;;;;;;5063192;28;20425;-61
2023/10/12 06:51:02;;;;;;;1.03;1.03;;;18.30;99.90;;;;;;5072679;28;20403;-61
2023/10/12 06:53:35;;;;;;;0.60;0.60;;;18.50;99.90;;;;;;5055836;28;20447;-61
2023/10/12 06:56:16;;;;;;;0.30;0.20;;;18.80;99.90;;;;;;5051958;28;20463;-62
2023/10/12 06:59:08;;;;;;;0.30;0.20;;;19.00;99.90;;;;;;5052168;28;20824;-61
2023/10/12 07:04:19;;;;;;;0.33;0.33;;;19.70;99.90;;;;;;5071841;28;20430;-62
2023/10/12 07:07:01;;;;;;;0.30;0.30;;;20.10;99.90;;;;;;5072384;28;20488;-62
2023/10/12 07:09:29;;;;;;;0.30;0.30;;;20.50;99.90;;;;;;5072540;28;20497;-62
2023/10/12 07:11:55;;;;;;;0.33;0.30;;;20.80;99.80;;;;;;5070202;28;20411;-60
2023/10/12 07:14:31;;;;;;;0.30;0.30;;;21.30;99.30;;;;;;5066975;28;20449;-61
2023/10/12 07:16:57;;;;;;;0.40;0.40;;;21.80;98.60;;;;;;5052473;28;20210;-61
2023/10/12 07:19:24;;;;;;;0.30;0.30;;;22.30;97.20;;;;;;5051905;28;20913;-62
2023/10/12 07:21:55;;;;;;;0.30;0.30;;;22.50;96.80;;;;;;5051981;28;20828;-62
2023/10/12 07:24:23;;;;;;;0.60;0.60;;;22.80;96.30;;;;;;5071797;28;20411;-62
2023/10/12 07:26:49;;;;;;;0.30;0.27;;;23.30;96.30;;;;;;5072252;28;20847;-62
2023/10/12 07:29:19;;;;;;;0.30;0.30;;;24.00;95.20;;;;;;5087617;28;20390;-61
2023/10/12 07:31:48;;;;;;;0.77;0.60;;;24.80;94.10;;;;;;5072319;28;20797;-62
2023/10/12 07:34:15;;;;;;;0.43;0.43;;;25.50;92.70;;;;;;5071866;28;20469;-61
2023/10/12 07:39:42;;;;;;;0.40;0.40;;;26.80;90.50;;;;;;5072722;28;20418;-60
2023/10/12 07:42:01;;;;;;;0.30;0.20;;;27.10;87.10;;;;;;5068238;28;20181;-62
2023/10/12 07:44:28;;;;;;;0.87;0.87;;;26.90;87.00;;;;;;5054473;28;20387;-62
2023/10/12 07:46:56;;;;;;;0.30;0.27;;;26.50;85.80;;;;;;5055492;28;20770;-62
2023/10/12 07:49:38;;;;;;;0.53;0.53;;;26.30;86.20;;;;;;5055979;28;20942;-62
2023/10/12 07:52:22;;;;;;;0.40;0.40;;;26.10;87.30;;;;;;5055703;28;20969;-62
2023/10/12 07:57:14;;;;;;;0.63;0.40;;;25.70;87.50;;;;;;5075528;28;20386;-61
2023/10/12 07:59:49;;;;;;;0.47;0.47;;;25.80;86.80;;;;;;5075387;28;20382;-62
2023/10/12 08:02:15;;;;;;;0.60;0.60;;;25.70;85.90;;;;;;5073948;28;20735;-62
2023/10/12 08:04:58;;;;;;;0.30;0.30;;;25.50;85.80;;;;;;5055061;28;20423;-62
2023/10/12 08:07:27;;;;;;;0.47;0.47;;;25.30;86.70;;;;;;5055308;28;20451;-62
2023/10/12 08:10:08;;;;;;;0.40;0.40;;;25.10;87.60;;;;;;5054929;28;20412;-61
2023/10/12 08:12:36;;;;;;;0.53;0.43;;;24.80;88.50;;;;;;5058025;28;20470;-61
2023/10/12 08:15:09;;;;;;;0.30;0.30;;;24.50;88.20;;;;;;5074455;28;20474;-62
2023/10/12 08:17:35;;;;;;;0.30;0.30;;;24.20;88.60;;;;;;5074845;28;20418;-62
2023/10/12 08:20:57;;;;;;;0.43;0.43;;;23.90;88.90;;;;;;5075052;28;20403;-61
2023/10/12 08:22:54;;;;;;;0.50;0.50;;;23.60;89.90;;;;;;5058779;28;20751;-61
2023/10/12 08:25:27;;;;;;;0.30;0.30;;;23.40;90.30;;;;;;5054415;28;20428;-61
2023/10/12 08:27:53;;;;;;;0.37;0.33;;;23.10;90.40;;;;;;5054851;28;20412;-61
2023/10/12 08:30:23;;;;;;;0.30;0.20;;;22.80;90.90;;;;;;5054722;28;20405;-61
2023/10/12 08:32:58;;;;;;;0.30;0.30;;;22.70;91.40;;;;;;5058977;28;20502;-61
2023/10/12 08:35:36;;;;;;;0.30;0.30;;;22.50;91.50;;;;;;5089627;28;20435;-61
2023/10/12 08:38:15;;;;;;;0.43;0.30;;;22.40;91.70;;;;;;5074428;28;20385;-61
2023/10/12 08:43:42;;;;;;;0.30;0.20;;;22.20;92.10;;;;;;5073415;28;20522;-61
2023/10/12 08:46:10;;;;;;;0.37;0.30;;;22.20;92.60;;;;;;5073858;28;20429;-61
2023/10/12 08:48:36;;;;;;;0.30;0.30;;;22.10;92.40;;;;;;5074282;28;20418;-61
2023/10/12 08:51:09;;;;;;;0.30;0.30;;;22.10;92.50;;;;;;5074273;28;20713;-61
2023/10/12 08:53:39;;;;;;;0.30;0.30;;;22.10;92.80;;;;;;5063052;28;20617;-61
2023/10/12 08:56:08;;;;;;;0.43;0.43;;;22.00;92.50;;;;;;5053199;28;20507;-63
2023/10/12 08:58:43;;;;;;;0.30;0.30;;;22.00;92.60;;;;;;5054215;28;20412;-60
2023/10/12 09:01:10;;;;;;;0.30;0.30;;;21.90;92.80;;;;;;5054149;28;20490;-61
2023/10/12 09:03:44;;;;;;;0.30;0.27;;;21.90;93.00;;;;;;5064323;28;20434;-61
2023/10/12 09:08:56;;;;;;;0.30;0.20;;;21.80;93.50;;;;;;5074210;28;20491;-62
2023/10/12 09:11:29;;;;;;;0.37;0.37;;;21.70;93.60;;;;;;5069341;28;20489;-62
2023/10/12 09:13:57;;;;;;;0.30;0.20;;;21.70;93.20;;;;;;5073477;28;20438;-62
2023/10/12 09:16:23;;;;;;;0.30;0.30;;;21.80;93.00;;;;;;5065873;28;20498;-62
2023/10/12 09:18:56;;;;;;;0.30;0.30;;;21.70;92.90;;;;;;5053822;28;20437;-62
2023/10/12 09:26:34;;;;;;;0.40;0.40;;;21.70;92.80;;;;;;5063205;28;20936;-61
2023/10/12 09:36:28;;;;;;;0.30;0.30;;;21.70;93.40;;;;;;5065866;28;20434;-61
2023/10/12 09:38:57;;;;;;;0.30;0.30;;;21.70;93.30;;;;;;5053512;28;20409;-62
2023/10/12 09:41:32;;;;;;;0.83;0.83;;;21.70;93.50;;;;;;5054101;28;20400;-61
2023/10/12 09:44:04;;;;;;;0.30;0.20;;;21.80;93.80;;;;;;5061292;28;20517;-60
2023/10/12 09:46:32;;;;;;;0.40;0.40;;;21.80;93.10;;;;;;5057974;28;20431;-62
2023/10/12 09:49:02;;;;;;;0.40;0.40;;;21.90;92.90;;;;;;5071373;28;20475;-62
2023/10/12 09:51:35;;;;;;;0.30;0.30;;;22.00;93.00;;;;;;5072790;28;20436;-61
2023/10/12 09:54:15;;;;;;;0.90;0.67;;;22.00;92.70;;;;;;5072703;28;20420;-62
2023/10/12 09:56:47;;;;;;;0.30;0.20;;;22.10;92.80;;;;;;5063811;28;20924;-62
2023/10/12 09:59:18;;;;;;;0.50;0.50;;;22.10;93.10;;;;;;5053218;28;20503;-61
2023/10/12 10:07:18;;;;;;;0.30;0.23;;;22.20;92.90;;;;;;5061036;28;20541;-62
2023/10/12 10:09:52;;;;;;;0.30;0.30;;;22.20;92.90;;;;;;5072852;28;20466;-61
2023/10/12 10:12:20;;;;;;;0.33;0.30;;;22.30;93.00;;;;;;5073516;28;20425;-61
2023/10/12 10:14:52;;;;;;;0.43;0.43;;;22.30;93.00;;;;;;5072768;28;20446;-62
2023/10/12 10:17:23;;;;;;;0.30;0.20;;;22.30;92.80;;;;;;5061003;28;20826;-63
2023/10/12 10:20:43;;;;;;;0.93;0.93;;;22.30;92.80;;;;;;5053005;28;20458;-62
2023/10/12 10:23:02;;;;;;;0.47;0.40;;;22.30;93.10;;;;;;5053059;28;20389;-62
2023/10/12 10:25:36;;;;;;;0.30;0.20;;;22.30;92.80;;;;;;5052711;28;20434;-63
2023/10/12 10:28:13;;;;;;;0.30;0.30;;;22.30;92.90;;;;;;5070081;28;20555;-63
2023/10/12 10:30:41;;;;;;;0.40;0.40;;;22.30;92.90;;;;;;5073389;28;20493;-63
2023/10/12 10:33:17;;;;;;;0.30;0.20;;;22.40;92.80;;;;;;5072638;28;20998;-62
2023/10/12 10:36:00;;;;;;;1.00;0.90;;;22.40;92.80;;;;;;5072791;28;20513;-62
2023/10/12 10:38:33;;;;;;;0.30;0.20;;;22.40;93.00;;;;;;5052847;28;20433;-63
2023/10/12 10:41:05;;;;;;;0.30;0.30;;;22.50;92.90;;;;;;5052923;28;20448;-64
2023/10/12 10:43:39;;;;;;;0.50;0.50;;;22.50;92.70;;;;;;5052822;28;20438;-64
2023/10/12 10:46:06;;;;;;;0.50;0.47;;;22.60;92.80;;;;;;5052726;28;20430;-64
2023/10/12 10:48:36;;;;;;;0.30;0.30;;;22.60;92.70;;;;;;5073032;28;20403;-65
2023/10/12 10:51:11;;;;;;;1.43;0.93;;;22.70;92.60;;;;;;5071526;28;20510;-65
2023/10/12 10:53:40;;;;;;;0.30;0.30;;;22.70;92.60;;;;;;5088018;28;20462;-68
2023/10/12 10:56:15;;;;;;;0.30;0.30;;;22.70;92.80;;;;;;5072127;28;20430;-65
2023/10/12 10:58:41;;;;;;;0.33;0.33;;;22.70;93.10;;;;;;5052986;28;20421;-63
2023/10/12 11:01:12;;;;;;;0.33;0.33;;;22.70;93.20;;;;;;5052653;28;20470;-65
2023/10/12 11:03:47;;;;;;;0.50;0.50;;;22.70;93.10;;;;;;5051030;28;20918;-65
2023/10/12 11:06:21;;;;;;;0.30;0.20;;;22.60;93.40;;;;;;5051213;28;20501;-64
2023/10/12 11:09:06;;;;;;;1.23;0.40;;;22.60;93.30;;;;;;5052938;28;20424;-63
2023/10/12 11:11:37;;;;;;;0.30;0.30;;;22.70;93.00;;;;;;5052652;28;20833;-64
2023/10/12 11:14:10;;;;;;;0.37;0.37;;;22.70;93.00;;;;;;5052123;28;20505;-66
2023/10/12 11:16:37;;;;;;;0.30;0.30;;;22.70;93.30;;;;;;5052630;28;20831;-64
2023/10/12 11:19:03;;;;;;;0.70;0.70;;;22.70;93.00;;;;;;5055092;28;20404;-64
2023/10/12 11:21:29;;;;;;;0.33;0.33;;;22.80;93.40;;;;;;5056192;28;20458;-64
2023/10/12 11:24:09;;;;;;;0.30;0.20;;;22.80;93.10;;;;;;5055907;28;20473;-64
2023/10/12 11:26:54;;;;;;;0.30;0.30;;;22.90;92.90;;;;;;5071967;28;20435;-61
2023/10/12 11:29:24;;;;;;;0.47;0.47;;;22.90;93.00;;;;;;5076163;28;20427;-63
2023/10/12 11:32:09;;;;;;;0.30;0.30;;;22.90;93.40;;;;;;5076270;28;20446;-62
2023/10/12 11:34:45;;;;;;;0.40;0.37;;;22.90;93.80;;;;;;5075373;28;20537;-62
2023/10/12 11:37:13;;;;;;;0.30;0.30;;;22.90;93.60;;;;;;5055927;28;20765;-62
2023/10/12 11:39:46;;;;;;;0.30;0.30;;;22.90;93.50;;;;;;5038113;28;20407;-62
2023/10/12 11:42:13;;;;;;;0.30;0.30;;;23.00;93.60;;;;;;5056140;28;20407;-61
2023/10/12 11:44:43;;;;;;;0.30;0.30;;;23.00;93.70;;;;;;5055630;28;20394;-63
2023/10/12 11:47:10;;;;;;;0.30;0.30;;;23.00;93.90;;;;;;5056007;28;20516;-64
2023/10/12 11:49:58;;;;;;;0.50;0.50;;;23.10;93.90;;;;;;5055645;28;20441;-62
2023/10/12 11:52:34;;;;;;;0.30;0.20;;;23.10;93.90;;;;;;5054432;28;20428;-63
2023/10/12 11:55:19;;;;;;;0.40;0.40;;;23.00;93.60;;;;;;5056192;28;20463;-62
2023/10/12 11:57:54;;;;;;;0.53;0.53;;;23.00;93.80;;;;;;5075368;28;20413;-62
2023/10/12 12:00:21;;;;;;;0.33;0.33;;;23.10;94.10;;;;;;5075365;28;20420;-62
2023/10/12 12:02:52;;;;;;;0.40;0.37;;;23.10;94.30;;;;;;5075730;28;20924;-63
2023/10/12 12:05:19;;;;;;;0.40;0.40;;;23.10;94.40;;;;;;5071416;28;20941;-62
2023/10/12 12:07:51;;;;;;;0.37;0.37;;;23.20;94.50;;;;;;5055259;28;20501;-63
2023/10/12 12:11:05;;;;;;;0.30;0.30;;;23.30;94.70;;;;;;5055476;28;20470;-62
2023/10/12 12:13:08;;;;;;;0.70;0.40;;;23.30;94.60;;;;;;5044835;28;20458;-63
2023/10/12 12:15:40;;;;;;;0.40;0.40;;;23.30;94.80;;;;;;5060501;28;20469;-65
2023/10/12 12:18:20;;;;;;;0.30;0.30;;;23.30;94.20;;;;;;5091509;28;20468;-62
2023/10/12 12:20:56;;;;;;;0.30;0.20;;;23.20;94.40;;;;;;5062460;28;20416;-61
2023/10/12 12:23:27;;;;;;;0.50;0.50;;;23.10;94.70;;;;;;5055890;28;20383;-62
2023/10/12 12:25:59;;;;;;;0.70;0.70;;;23.00;95.10;;;;;;5071628;28;20467;-63
2023/10/12 12:28:31;;;;;;;0.57;0.57;;;22.90;95.30;;;;;;5055815;28;20412;-62
2023/10/12 12:31:00;;;;;;;0.30;0.30;;;22.80;95.50;;;;;;5055983;28;20411;-62
2023/10/12 12:33:27;;;;;;;0.30;0.30;;;22.60;95.80;;;;;;5074626;28;20469;-63
2023/10/12 12:36:12;;;;;;;0.30;0.30;;;22.60;96.00;;;;;;5067099;28;20466;-62
2023/10/12 12:41:22;;;;;;;0.30;0.30;;;22.40;96.20;;;;;;5073227;28;20419;-64
2023/10/12 12:43:48;;;;;;;0.30;0.27;;;22.30;96.50;;;;;;5074522;28;20490;-65
2023/10/12 12:46:15;;;;;;;0.30;0.30;;;22.20;96.70;;;;;;5065046;28;20433;-66
2023/10/12 12:48:45;;;;;;;0.40;0.40;;;22.20;96.50;;;;;;5072652;28;20403;-65
2023/10/12 12:51:17;;;;;;;0.40;0.40;;;22.10;96.50;;;;;;5054689;28;20412;-64
2023/10/12 12:53:46;;;;;;;0.50;0.40;;;22.10;96.40;;;;;;5055031;28;20462;-63
2023/10/12 12:56:14;;;;;;;0.30;0.20;;;22.10;96.30;;;;;;5070273;28;20506;-64
2023/10/12 12:58:46;;;;;;;0.43;0.43;;;22.10;96.30;;;;;;5073355;28;20407;-63
2023/10/12 13:01:23;;;;;;;0.30;0.30;;;22.10;96.50;;;;;;5072661;28;20416;-63
2023/10/12 13:03:55;;;;;;;0.30;0.20;;;22.10;96.70;;;;;;5058321;28;20891;-66
2023/10/12 13:06:22;;;;;;;0.30;0.30;;;22.00;96.70;;;;;;5073487;28;20459;-65
2023/10/12 13:08:47;;;;;;;1.00;0.40;;;22.00;96.70;;;;;;5064292;28;20429;-63
2023/10/12 13:11:20;;;;;;;0.30;0.20;;;22.00;96.80;;;;;;5066505;28;20416;-64
2023/10/12 13:13:47;;;;;;;0.30;0.20;;;22.00;96.80;;;;;;5071339;28;20670;-64
2023/10/12 13:16:13;;;;;;;0.30;0.20;;;22.00;96.80;;;;;;5065381;28;20537;-63
2023/10/12 13:18:48;;;;;;;0.40;0.40;;;22.10;96.70;;;;;;5054036;28;20439;-65
2023/10/12 13:21:14;;;;;;;0.50;0.40;;;22.10;96.70;;;;;;5059264;28;20451;-64
2023/10/12 13:23:45;;;;;;;0.40;0.40;;;22.10;96.60;;;;;;5057806;28;20439;-62
2023/10/12 13:26:17;;;;;;;0.30;0.20;;;22.10;96.90;;;;;;5064657;28;20449;-64
2023/10/12 13:28:44;;;;;;;0.30;0.30;;;22.10;97.00;;;;;;5062766;28;20432;-64
2023/10/12 13:31:13;;;;;;;0.30;0.20;;;22.10;97.10;;;;;;5064265;28;20421;-64
2023/10/12 13:33:41;;;;;;;0.50;0.50;;;22.10;97.30;;;;;;5065693;28;20793;-63
2023/10/12 13:36:08;;;;;;;0.60;0.60;;;22.20;97.40;;;;;;5061854;28;20785;-64
2023/10/12 13:38:36;;;;;;;0.30;0.30;;;22.20;97.40;;;;;;5071734;28;20812;-64
2023/10/12 13:41:02;;;;;;;0.30;0.30;;;22.30;97.20;;;;;;5054663;28;20462;-63
2023/10/12 13:43:32;;;;;;;0.40;0.40;;;22.40;96.90;;;;;;5054687;28;20407;-62
2023/10/12 13:45:59;;;;;;;0.30;0.30;;;22.40;96.90;;;;;;5058851;28;20454;-64
2023/10/12 13:48:28;;;;;;;0.47;0.47;;;22.40;96.80;;;;;;5053483;28;20424;-63
2023/10/12 13:51:08;;;;;;;0.30;0.20;;;22.50;96.80;;;;;;5056895;28;20441;-63
2023/10/12 13:53:36;;;;;;;0.30;0.30;;;22.50;96.80;;;;;;5073602;28;20449;-61
2023/10/12 13:56:08;;;;;;;0.30;0.30;;;22.50;96.80;;;;;;5065554;28;20493;-62
2023/10/12 13:58:38;;;;;;;0.50;0.50;;;22.50;96.40;;;;;;5072334;28;20415;-63
2023/10/12 14:01:04;;;;;;;0.60;0.60;;;22.60;96.70;;;;;;5064419;28;20465;-63
2023/10/12 14:03:35;;;;;;;0.30;0.20;;;22.60;96.40;;;;;;5073563;28;20426;-62
2023/10/12 14:06:06;;;;;;;0.90;0.90;;;22.60;96.30;;;;;;5065367;28;20448;-63
2023/10/12 14:08:35;;;;;;;0.30;0.20;;;22.60;96.40;;;;;;5055482;28;20746;-63
2023/10/12 14:11:06;;;;;;;0.40;0.40;;;22.50;96.30;;;;;;5068371;28;20447;-63
2023/10/12 14:13:32;;;;;;;0.30;0.20;;;22.50;96.60;;;;;;5053022;28;20445;-63
2023/10/12 14:15:59;;;;;;;0.30;0.30;;;22.50;96.60;;;;;;5057221;28;20452;-64
2023/10/12 14:18:28;;;;;;;0.57;0.57;;;22.50;96.70;;;;;;5072981;28;20396;-63
2023/10/12 14:20:54;;;;;;;0.40;0.40;;;22.50;96.70;;;;;;5069677;28;20419;-63
2023/10/12 14:23:25;;;;;;;0.30;0.30;;;22.60;96.60;;;;;;5053089;28;20927;-64
2023/10/12 14:25:51;;;;;;;0.50;0.50;;;22.70;96.50;;;;;;5053158;28;20446;-62
2023/10/12 14:28:17;;;;;;;0.30;0.30;;;22.70;96.20;;;;;;5062498;28;20429;-63
2023/10/12 14:30:47;;;;;;;0.40;0.37;;;22.80;96.20;;;;;;5053693;28;20500;-63
2023/10/12 14:33:15;;;;;;;0.40;0.40;;;22.70;96.20;;;;;;5072830;28;20520;-62
2023/10/12 14:35:42;;;;;;;0.30;0.30;;;22.70;96.20;;;;;;5056376;28;20454;-62
2023/10/12 14:38:12;;;;;;;0.30;0.20;;;22.60;96.40;;;;;;5072537;28;20520;-63
2023/10/12 14:40:40;;;;;;;0.30;0.20;;;22.50;96.40;;;;;;5073062;28;20404;-61
2023/10/12 14:43:06;;;;;;;0.30;0.20;;;22.50;96.50;;;;;;5054791;28;20521;-63
2023/10/12 14:45:34;;;;;;;0.30;0.20;;;22.50;96.50;;;;;;5068897;28;20441;-63
2023/10/12 14:48:00;;;;;;;0.40;0.30;;;22.50;96.40;;;;;;5071065;28;20430;-64
2023/10/12 14:50:26;;;;;;;0.30;0.30;;;22.40;96.30;;;;;;5088552;28;20419;-63
2023/10/12 14:52:53;;;;;;;0.40;0.40;;;22.40;96.40;;;;;;5056903;28;20729;-63
2023/10/12 14:55:20;;;;;;;0.67;0.67;;;22.40;96.60;;;;;;5076530;28;20430;-64
2023/10/12 14:57:49;;;;;;;0.47;0.47;;;22.40;96.80;;;;;;5076008;28;20407;-63
2023/10/12 15:00:24;;;;;;;0.30;0.20;;;22.50;96.90;;;;;;5084216;28;20516;-64
2023/10/12 15:02:51;;;;;;;0.30;0.30;;;22.50;96.70;;;;;;5070273;28;20481;-64
2023/10/12 15:05:17;;;;;;;0.30;0.30;;;22.50;96.80;;;;;;5065833;28;20463;-64
2023/10/12 15:07:43;;;;;;;0.30;0.20;;;22.40;96.80;;;;;;5059000;28;20504;-64
2023/10/12 15:10:08;;;;;;;0.40;0.40;;;22.40;96.80;;;;;;5065657;28;20419;-65
2023/10/12 15:12:34;;;;;;;0.30;0.30;;;22.40;97.00;;;;;;5058171;28;20177;-64
2023/10/12 15:15:08;;;;;;;0.40;0.30;;;22.40;97.00;;;;;;5064013;28;20212;-63
2023/10/12 15:17:40;;;;;;;1.13;0.57;;;22.30;96.90;;;;;;5070112;28;20181;-63
2023/10/12 15:20:08;;;;;;;0.30;0.30;;;22.30;97.00;;;;;;5069807;28;20403;-63
2023/10/12 15:22:35;;;;;;;0.30;0.30;;;22.30;96.40;;;;;;5066406;28;20857;-64
2023/10/12 15:25:04;;;;;;;0.30;0.20;;;22.30;96.30;;;;;;5059451;28;20502;-63
2023/10/12 15:27:30;;;;;;;0.40;0.40;;;22.40;95.70;;;;;;5067630;28;20944;-64
2023/10/12 15:29:55;;;;;;;0.30;0.30;;;22.40;95.60;;;;;;5066026;28;20419;-64
2023/10/12 15:32:21;;;;;;;0.30;0.30;;;22.50;93.90;;;;;;5064395;28;20253;-64
2023/10/12 15:34:49;;;;;;;0.30;0.20;;;22.50;93.60;;;;;;5068411;28;20739;-63
2023/10/12 15:37:15;;;;;;;0.30;0.20;;;22.60;93.30;;;;;;5073719;28;20184;-64
2023/10/12 15:39:42;;;;;;;0.30;0.30;;;22.80;93.50;;;;;;5073746;28;20420;-63
2023/10/12 15:42:08;;;;;;;0.30;0.30;;;22.80;93.00;;;;;;5075649;28;20620;-64
2023/10/12 15:44:39;;;;;;;0.30;0.30;;;22.90;92.90;;;;;;5069470;28;20791;-64
2023/10/12 15:47:05;;;;;;;0.80;0.80;;;22.90;92.60;;;;;;5068367;28;20455;-64
2023/10/12 15:49:32;;;;;;;0.40;0.40;;;22.90;92.80;;;;;;5056977;28;20937;-64
2023/10/12 15:52:00;;;;;;;0.40;0.40;;;22.90;92.90;;;;;;5056096;28;20441;-64
2023/10/12 15:54:27;;;;;;;0.50;0.43;;;22.90;93.00;;;;;;5055603;28;20490;-63
2023/10/12 15:56:55;;;;;;;0.40;0.40;;;22.90;93.10;;;;;;5061630;28;20415;-64
2023/10/12 15:59:26;;;;;;;0.37;0.37;;;22.90;93.10;;;;;;5069249;28;20413;-63
2023/10/12 16:01:51;;;;;;;0.30;0.30;;;22.90;93.00;;;;;;5055865;28;20424;-62
2023/10/12 16:04:19;;;;;;;0.30;0.30;;;22.80;93.20;;;;;;5055612;28;20387;-64
2023/10/12 16:06:46;;;;;;;0.30;0.30;;;22.80;93.10;;;;;;5058712;28;20291;-65
2023/10/12 16:09:18;;;;;;;0.33;0.33;;;22.80;93.50;;;;;;5075685;28;20387;-64
2023/10/12 16:11:43;;;;;;;1.17;1.07;;;22.70;93.50;;;;;;5070582;28;20791;-63
2023/10/12 16:14:09;;;;;;;1.63;0.50;;;22.70;93.50;;;;;;5055002;28;20471;-63
2023/10/12 16:16:35;;;;;;;0.30;0.30;;;22.60;93.60;;;;;;5055724;28;20200;-62
2023/10/12 16:19:01;;;;;;;0.40;0.40;;;22.50;93.50;;;;;;5056193;28;20423;-64
2023/10/12 16:21:26;;;;;;;0.57;0.57;;;22.50;93.60;;;;;;5072625;28;20515;-63
2023/10/12 16:23:52;;;;;;;0.30;0.30;;;22.50;93.80;;;;;;5075017;28;20191;-63
2023/10/12 16:26:18;;;;;;;0.73;0.73;;;22.40;93.60;;;;;;5075053;28;20206;-64
2023/10/12 16:28:46;;;;;;;0.30;0.20;;;22.40;93.70;;;;;;5069699;28;20511;-64
2023/10/12 16:31:11;;;;;;;0.60;0.60;;;22.30;93.80;;;;;;5067775;28;20190;-64
2023/10/12 16:33:38;;;;;;;0.70;0.70;;;22.30;93.80;;;;;;5074887;28;20422;-64
2023/10/12 16:36:11;;;;;;;0.40;0.40;;;22.20;93.80;;;;;;5056834;28;20509;-64
2023/10/12 16:38:36;;;;;;;0.30;0.30;;;22.20;94.10;;;;;;5064750;28;20911;-64
2023/10/12 16:41:08;;;;;;;0.40;0.40;;;22.10;94.00;;;;;;5054988;28;20425;-65
2023/10/12 16:43:34;;;;;;;0.40;0.30;;;22.10;94.00;;;;;;5055069;28;20399;-63
2023/10/12 16:46:00;;;;;;;0.50;0.50;;;22.00;94.20;;;;;;5054472;28;20428;-62
2023/10/12 16:48:28;;;;;;;0.57;0.57;;;22.00;94.60;;;;;;5056298;28;20408;-64
2023/10/12 16:50:55;;;;;;;0.30;0.30;;;22.00;94.20;;;;;;5074921;28;20392;-64
2023/10/12 16:53:20;;;;;;;0.87;0.87;;;21.90;94.00;;;;;;5066179;28;20510;-62
2023/10/12 16:55:46;;;;;;;0.90;0.90;;;21.90;94.00;;;;;;5055923;28;20439;-64
2023/10/12 16:58:12;;;;;;;0.30;0.30;;;21.90;93.90;;;;;;5074148;28;20211;-62
2023/10/12 17:00:37;;;;;;;0.40;0.37;;;21.90;94.00;;;;;;5054399;28;20253;-65
2023/10/12 17:03:06;;;;;;;0.30;0.20;;;21.90;94.00;;;;;;5054253;28;20166;-62
2023/10/12 17:05:32;;;;;;;0.30;0.20;;;21.80;94.00;;;;;;5054009;28;20275;-65
2023/10/12 17:07:58;;;;;;;0.77;0.77;;;21.80;93.90;;;;;;5069049;28;21004;-62
2023/10/12 17:10:30;;;;;;;0.30;0.30;;;21.80;93.90;;;;;;5057131;28;20177;-63
2023/10/12 17:12:56;;;;;;;0.37;0.37;;;21.90;93.80;;;;;;5055176;28;20624;-62
2023/10/12 17:15:22;;;;;;;0.50;0.50;;;21.80;93.70;;;;;;5059359;28;20554;-64
2023/10/12 17:17:52;;;;;;;0.37;0.37;;;21.80;93.70;;;;;;5069202;28;20187;-63
2023/10/12 17:20:18;;;;;;;0.30;0.20;;;21.80;93.70;;;;;;5067519;28;20502;-62
2023/10/12 17:22:45;;;;;;;0.30;0.30;;;21.80;93.70;;;;;;5060825;28;20441;-63
2023/10/12 17:25:12;;;;;;;0.30;0.20;;;21.80;93.60;;;;;;5072412;28;20847;-63
2023/10/12 17:27:39;;;;;;;0.80;0.77;;;21.80;93.70;;;;;;5073194;28;20427;-65
2023/10/12 17:30:09;;;;;;;0.30;0.20;;;21.80;93.70;;;;;;5058016;28;20963;-63
2023/10/12 17:32:35;;;;;;;0.30;0.20;;;21.70;93.70;;;;;;5089506;28;20446;-62
2023/10/12 17:35:04;;;;;;;0.30;0.30;;;21.70;93.80;;;;;;5089145;28;20828;-62
2023/10/12 17:37:30;;;;;;;0.40;0.30;;;21.60;93.80;;;;;;5065052;28;20448;-62
2023/10/12 17:39:56;;;;;;;1.23;1.13;;;21.60;93.90;;;;;;5053756;28;20416;-61
2023/10/12 17:42:21;;;;;;;0.30;0.30;;;21.50;93.80;;;;;;5053776;28;20399;-63
2023/10/12 17:44:47;;;;;;;0.97;0.97;;;21.50;94.00;;;;;;5053443;28;20170;-61
2023/10/12 17:47:13;;;;;;;0.30;0.30;;;21.40;94.20;;;;;;5058476;28;20195;-61
2023/10/12 17:49:40;;;;;;;0.47;0.47;;;21.40;94.30;;;;;;5053791;28;20473;-62
2023/10/12 17:52:06;;;;;;;0.73;0.73;;;21.30;94.20;;;;;;5084293;28;20719;-60
2023/10/12 17:54:32;;;;;;;0.30;0.30;;;21.30;94.30;;;;;;5072790;28;20508;-62
2023/10/12 17:56:59;;;;;;;0.57;0.57;;;21.20;94.20;;;;;;5069808;28;20178;-61
2023/10/12 17:59:25;;;;;;;0.30;0.27;;;21.20;94.20;;;;;;5053774;28;20803;-61
2023/10/12 18:01:51;;;;;;;0.30;0.30;;;21.20;94.30;;;;;;5066469;28;20417;-62
2023/10/12 18:04:17;;;;;;;0.30;0.30;;;21.10;94.40;;;;;;5072610;28;20558;-61
2023/10/12 18:06:43;;;;;;;0.30;0.30;;;21.10;94.40;;;;;;5072563;28;20215;-61
2023/10/12 18:09:09;;;;;;;0.30;0.30;;;21.10;94.10;;;;;;5056377;28;20435;-61
2023/10/12 18:11:35;;;;;;;0.30;0.30;;;21.10;94.00;;;;;;5063928;28;20502;-60
2023/10/12 18:14:04;;;;;;;0.30;0.20;;;21.20;93.90;;;;;;5069106;28;20458;-61
2023/10/12 18:16:30;;;;;;;0.30;0.20;;;21.20;93.80;;;;;;5053001;28;20181;-62
2023/10/12 18:18:56;;;;;;;0.30;0.30;;;21.20;93.60;;;;;;5063232;28;20410;-61
2023/10/12 18:21:22;;;;;;;0.60;0.60;;;21.30;93.50;;;;;;5071579;28;20244;-61
2023/10/12 18:23:50;;;;;;;0.40;0.40;;;21.30;93.30;;;;;;5070934;28;20892;-60
2023/10/12 18:26:15;;;;;;;0.30;0.30;;;21.30;93.30;;;;;;5052847;28;20284;-60
2023/10/12 18:28:47;;;;;;;0.40;0.40;;;21.30;93.20;;;;;;5068548;28;20402;-61